createdAt,value
2017-11-24T00:00:21.007Z,2.00
2017-11-24T00:01:21.010Z,2.50
2017-11-24T00:02:21.020Z,1.90
2017-11-24T00:03:21.780Z,2.60
2017-11-24T00:04:21.038Z,2.30
2017-11-24T00:05:21.043Z,2.40
2017-11-24T00:06:21.050Z,2.50
2017-11-24T00:07:21.059Z,2.70
2017-11-24T00:08:21.068Z,2.30
2017-11-24T00:09:21.078Z,2.60
2017-11-24T00:10:21.092Z,2.30
2017-11-24T00:11:56.870Z,2.50
2017-11-24T00:12:21.114Z,2.40
2017-11-24T00:13:21.122Z,2.70
2017-11-24T00:14:21.133Z,2.40
2017-11-24T00:15:21.141Z,2.40
2017-11-24T00:16:21.151Z,2.30
2017-11-24T00:17:21.164Z,2.40
2017-11-24T00:18:21.186Z,2.80
2017-11-24T00:19:21.182Z,2.90
2017-11-24T00:20:21.196Z,2.90
2017-11-24T00:21:21.203Z,2.10
2017-11-24T00:22:21.213Z,2.30
2017-11-24T00:23:21.222Z,2.30
2017-11-24T00:24:21.227Z,2.70
2017-11-24T00:25:21.247Z,2.40
2017-11-24T00:26:21.246Z,2.50
2017-11-24T00:27:21.260Z,3.60
2017-11-24T00:28:21.465Z,2.60
2017-11-24T00:29:21.280Z,2.90
2017-11-24T00:30:21.297Z,2.70
2017-11-24T00:31:21.296Z,2.90
2017-11-24T00:32:21.309Z,2.70
2017-11-24T00:33:21.317Z,2.60
2017-11-24T00:34:21.335Z,3.20
2017-11-24T00:35:21.339Z,3.00
2017-11-24T00:36:21.345Z,3.00
2017-11-24T00:37:21.356Z,2.60
2017-11-24T00:38:21.365Z,2.20
2017-11-24T00:39:21.375Z,2.50
2017-11-24T00:40:21.388Z,3.00
2017-11-24T00:41:21.401Z,3.00
2017-11-24T00:42:21.400Z,2.50
2017-11-24T00:43:21.407Z,2.70
2017-11-24T00:44:21.416Z,3.10
2017-11-24T00:45:21.433Z,3.10
2017-11-24T00:46:21.439Z,2.70
2017-11-24T00:47:21.449Z,3.00
2017-11-24T00:48:21.457Z,3.10
2017-11-24T00:49:21.469Z,3.00
2017-11-24T00:50:21.481Z,2.80
2017-11-24T00:51:21.582Z,3.30
2017-11-24T00:52:21.502Z,3.60
2017-11-24T00:53:21.503Z,3.10
2017-11-24T00:54:21.529Z,3.40
2017-11-24T00:55:21.529Z,3.30
2017-11-24T00:56:21.535Z,3.60
2017-11-24T00:57:21.544Z,3.50
2017-11-24T00:58:21.552Z,3.30
2017-11-24T00:59:21.563Z,3.60
2017-11-24T01:00:21.579Z,3.80
2017-11-24T01:01:21.695Z,3.20
2017-11-24T01:02:21.592Z,4.20
2017-11-24T01:03:21.622Z,3.60
2017-11-24T01:04:21.669Z,3.80
2017-11-24T01:05:21.617Z,4.10
2017-11-24T01:06:21.713Z,4.30
2017-11-24T01:07:21.683Z,4.00
2017-11-24T01:08:45.493Z,3.70
2017-11-24T01:09:21.656Z,3.80
2017-11-24T01:10:21.665Z,3.30
2017-11-24T01:11:21.669Z,3.50
2017-11-24T01:12:21.682Z,3.70
2017-11-24T01:13:21.689Z,3.30
2017-11-24T01:14:21.698Z,3.20
2017-11-24T01:15:21.710Z,3.30
2017-11-24T01:16:22.299Z,3.30
2017-11-24T01:17:21.729Z,3.70
2017-11-24T01:18:21.741Z,3.60
2017-11-24T01:19:21.760Z,3.60
2017-11-24T01:20:21.765Z,3.70
2017-11-24T01:21:21.774Z,3.20
2017-11-24T01:22:21.779Z,3.20
2017-11-24T01:23:21.790Z,3.60
2017-11-24T01:24:21.802Z,3.30
2017-11-24T01:25:21.815Z,4.30
2017-11-24T01:26:21.827Z,3.60
2017-11-24T01:27:21.834Z,3.70
2017-11-24T01:28:21.835Z,3.80
2017-11-24T01:29:21.848Z,3.20
2017-11-24T01:30:21.864Z,3.40
2017-11-24T01:31:21.871Z,3.50
2017-11-24T01:32:21.876Z,3.40
2017-11-24T01:33:21.889Z,3.40
2017-11-24T01:34:21.903Z,3.20
2017-11-24T01:35:21.899Z,3.20
2017-11-24T01:36:21.915Z,3.90
2017-11-24T01:37:21.923Z,3.80
2017-11-24T01:38:21.936Z,4.70
2017-11-24T01:39:21.946Z,4.20
2017-11-24T01:40:21.962Z,3.90
2017-11-24T01:41:21.966Z,3.60
2017-11-24T01:42:21.976Z,3.40
2017-11-24T01:43:21.984Z,3.50
2017-11-24T01:44:21.997Z,3.70
2017-11-24T01:45:21.999Z,3.60
2017-11-24T01:46:22.011Z,3.60
2017-11-24T01:47:22.023Z,2.80
2017-11-24T01:48:22.034Z,3.10
2017-11-24T01:49:22.103Z,3.90
2017-11-24T01:50:22.054Z,4.00
2017-11-24T01:51:22.064Z,3.00
2017-11-24T01:52:22.076Z,3.60
2017-11-24T01:53:22.090Z,3.80
2017-11-24T01:54:22.097Z,3.40
2017-11-24T01:55:22.103Z,4.10
2017-11-24T01:56:22.118Z,3.20
2017-11-24T01:57:22.127Z,3.50
2017-11-24T01:58:22.139Z,3.10
2017-11-24T01:59:22.152Z,3.20
2017-11-24T02:00:22.168Z,3.80
2017-11-24T02:01:22.162Z,2.80
2017-11-24T02:02:22.174Z,3.50
2017-11-24T02:03:22.209Z,3.40
2017-11-24T02:04:22.240Z,2.70
2017-11-24T02:05:22.209Z,3.40
2017-11-24T02:06:22.217Z,3.50
2017-11-24T02:07:22.226Z,2.90
2017-11-24T02:08:22.238Z,3.20
2017-11-24T02:09:22.249Z,2.90
2017-11-24T02:10:22.256Z,3.10
2017-11-24T02:11:22.270Z,2.40
2017-11-24T02:12:22.280Z,2.40
2017-11-24T02:13:22.284Z,2.90
2017-11-24T02:14:22.364Z,2.70
2017-11-24T02:15:22.307Z,3.00
2017-11-24T02:16:22.321Z,2.90
2017-11-24T02:17:22.328Z,2.90
2017-11-24T02:18:22.335Z,2.50
2017-11-24T02:19:22.345Z,2.60
2017-11-24T02:20:22.361Z,2.70
2017-11-24T02:21:22.381Z,3.10
2017-11-24T02:22:22.383Z,2.60
2017-11-24T02:23:22.393Z,3.40
2017-11-24T02:24:22.401Z,3.50
2017-11-24T02:25:22.406Z,3.30
2017-11-24T02:26:22.423Z,3.10
2017-11-24T02:27:22.434Z,3.90
2017-11-24T02:28:22.443Z,3.70
2017-11-24T02:29:22.453Z,3.10
2017-11-24T02:30:22.460Z,3.40
2017-11-24T02:31:22.473Z,2.90
2017-11-24T02:32:22.480Z,2.90
2017-11-24T02:33:22.491Z,2.70
2017-11-24T02:34:22.500Z,2.70
2017-11-24T02:35:22.512Z,3.30
2017-11-24T02:36:22.522Z,3.20
2017-11-24T02:37:22.552Z,2.60
2017-11-24T02:38:22.546Z,2.40
2017-11-24T02:39:22.554Z,3.10
2017-11-24T02:40:22.564Z,2.80
2017-11-24T02:41:22.577Z,2.10
2017-11-24T02:42:22.584Z,2.60
2017-11-24T02:43:22.595Z,2.70
2017-11-24T02:44:22.599Z,2.60
2017-11-24T02:45:22.611Z,2.70
2017-11-24T02:46:22.620Z,2.90
2017-11-24T02:47:22.635Z,3.00
2017-11-24T02:48:22.646Z,2.50
2017-11-24T02:49:22.655Z,2.80
2017-11-24T02:50:22.669Z,2.70
2017-11-24T02:51:22.677Z,3.20
2017-11-24T02:52:22.689Z,3.40
2017-11-24T02:53:22.694Z,3.30
2017-11-24T02:54:23.102Z,3.60
2017-11-24T02:55:22.717Z,2.90
2017-11-24T02:56:22.721Z,4.50
2017-11-24T02:57:22.737Z,7.60
2017-11-24T02:58:22.747Z,5.50
2017-11-24T02:59:22.755Z,5.40
2017-11-24T03:00:22.765Z,4.70
2017-11-24T03:01:22.769Z,5.10
2017-11-24T03:02:22.792Z,10.00
2017-11-24T03:03:22.797Z,4.50
2017-11-24T03:04:22.803Z,3.00
2017-11-24T03:05:22.810Z,2.90
2017-11-24T03:06:22.837Z,2.90
2017-11-24T03:07:22.832Z,2.80
2017-11-24T03:08:22.848Z,2.30
2017-11-24T03:09:22.880Z,2.60
2017-11-24T03:10:22.864Z,3.10
2017-11-24T03:11:22.880Z,2.40
2017-11-24T03:12:22.970Z,2.10
2017-11-24T03:13:22.900Z,2.00
2017-11-24T03:14:22.912Z,2.50
2017-11-24T03:15:22.924Z,2.40
2017-11-24T03:16:22.926Z,2.50
2017-11-24T03:17:22.934Z,2.10
2017-11-24T03:18:22.950Z,2.60
2017-11-24T03:19:22.960Z,2.20
2017-11-24T03:20:22.962Z,2.20
2017-11-24T03:21:22.983Z,2.50
2017-11-24T03:22:22.990Z,2.70
2017-11-24T03:23:22.993Z,2.60
2017-11-24T03:24:23.006Z,2.60
2017-11-24T03:25:23.016Z,1.70
2017-11-24T03:26:23.028Z,1.80
2017-11-24T03:27:23.038Z,2.70
2017-11-24T03:28:23.046Z,2.60
2017-11-24T03:29:23.056Z,2.70
2017-11-24T03:30:23.066Z,1.60
2017-11-24T03:31:23.075Z,1.80
2017-11-24T03:32:23.085Z,2.00
2017-11-24T03:33:23.106Z,2.80
2017-11-24T03:34:23.108Z,2.00
2017-11-24T03:35:23.126Z,2.80
2017-11-24T03:36:23.132Z,3.20
2017-11-24T03:37:23.156Z,2.40
2017-11-24T03:38:23.145Z,2.80
2017-11-24T03:39:23.159Z,1.90
2017-11-24T03:40:23.169Z,1.90
2017-11-24T03:41:23.184Z,2.50
2017-11-24T03:42:23.185Z,2.60
2017-11-24T03:43:23.201Z,2.40
2017-11-24T03:44:23.204Z,2.40
2017-11-24T03:45:23.213Z,3.30
2017-11-24T03:46:23.224Z,2.80
2017-11-24T03:47:23.238Z,2.40
2017-11-24T03:48:23.252Z,2.50
2017-11-24T03:49:23.253Z,2.60
2017-11-24T03:50:23.291Z,2.80
2017-11-24T03:51:23.272Z,3.30
2017-11-24T03:52:23.280Z,3.10
2017-11-24T03:53:23.296Z,3.40
2017-11-24T03:54:23.303Z,2.90
2017-11-24T03:55:23.314Z,3.50
2017-11-24T03:56:23.322Z,2.50
2017-11-24T03:57:23.346Z,3.10
2017-11-24T03:58:23.346Z,2.70
2017-11-24T03:59:23.410Z,2.90
2017-11-24T04:00:23.379Z,2.70
2017-11-24T04:01:23.373Z,2.80
2017-11-24T04:02:23.388Z,3.00
2017-11-24T04:03:23.395Z,2.80
2017-11-24T04:04:23.408Z,3.60
2017-11-24T04:05:23.422Z,2.60
2017-11-24T04:06:23.425Z,3.10
2017-11-24T04:07:23.434Z,2.70
2017-11-24T04:08:23.456Z,2.30
2017-11-24T04:09:23.457Z,2.40
2017-11-24T04:10:24.321Z,2.90
2017-11-24T04:11:23.477Z,3.40
2017-11-24T04:12:23.482Z,2.60
2017-11-24T04:13:23.495Z,3.60
2017-11-24T04:14:23.499Z,3.20
2017-11-24T04:15:23.512Z,2.50
2017-11-24T04:16:23.520Z,2.70
2017-11-24T04:17:23.561Z,2.70
2017-11-24T04:18:23.554Z,3.20
2017-11-24T04:19:23.555Z,3.50
2017-11-24T04:20:23.558Z,3.90
2017-11-24T04:21:23.570Z,2.80
2017-11-24T04:22:23.582Z,2.50
2017-11-24T04:23:23.594Z,3.40
2017-11-24T04:24:23.606Z,2.70
2017-11-24T04:25:23.605Z,2.50
2017-11-24T04:26:23.622Z,2.90
2017-11-24T04:27:23.627Z,2.70
2017-11-24T04:28:23.643Z,3.50
2017-11-24T04:29:23.655Z,3.50
2017-11-24T04:30:23.660Z,3.50
2017-11-24T04:31:23.675Z,3.90
2017-11-24T04:32:23.684Z,3.30
2017-11-24T04:33:23.692Z,3.90
2017-11-24T04:34:23.698Z,3.80
2017-11-24T04:35:23.711Z,4.80
2017-11-24T04:36:23.721Z,3.90
2017-11-24T04:37:23.737Z,4.00
2017-11-24T04:38:23.745Z,4.70
2017-11-24T04:39:23.746Z,4.30
2017-11-24T04:40:23.765Z,4.20
2017-11-24T04:41:23.774Z,4.00
2017-11-24T04:42:23.778Z,5.00
2017-11-24T04:43:23.789Z,3.50
2017-11-24T04:44:23.799Z,3.80
2017-11-24T04:45:23.810Z,3.70
2017-11-24T04:46:23.817Z,4.10
2017-11-24T04:47:23.832Z,4.20
2017-11-24T04:48:23.873Z,4.00
2017-11-24T04:49:23.851Z,4.30
2017-11-24T04:50:23.861Z,4.20
2017-11-24T04:51:23.871Z,5.40
2017-11-24T04:52:23.883Z,4.70
2017-11-24T04:53:23.892Z,4.20
2017-11-24T04:54:23.902Z,4.00
2017-11-24T04:55:23.913Z,4.70
2017-11-24T04:56:23.919Z,4.30
2017-11-24T04:57:23.927Z,5.10
2017-11-24T04:58:23.941Z,5.10
2017-11-24T04:59:23.950Z,4.20
2017-11-24T05:00:23.960Z,4.30
2017-11-24T05:01:23.969Z,4.90
2017-11-24T05:02:23.983Z,4.60
2017-11-24T05:03:23.989Z,4.80
2017-11-24T05:04:24.000Z,5.00
2017-11-24T05:05:24.005Z,5.20
2017-11-24T05:06:24.021Z,5.80
2017-11-24T05:07:24.029Z,5.20
2017-11-24T05:08:24.033Z,5.60
2017-11-24T05:09:24.043Z,5.00
2017-11-24T05:10:24.059Z,5.60
2017-11-24T05:11:24.069Z,5.80
2017-11-24T05:12:24.077Z,5.60
2017-11-24T05:13:24.091Z,5.80
2017-11-24T05:14:24.088Z,6.00
2017-11-24T05:15:24.101Z,5.60
2017-11-24T05:16:24.112Z,6.00
2017-11-24T05:17:24.129Z,6.30
2017-11-24T05:18:24.141Z,6.60
2017-11-24T05:19:24.146Z,6.50
2017-11-24T05:20:24.158Z,6.90
2017-11-24T05:21:24.159Z,6.10
2017-11-24T05:22:24.170Z,7.30
2017-11-24T05:23:24.179Z,8.10
2017-11-24T05:24:24.192Z,7.90
2017-11-24T05:25:24.200Z,8.00
2017-11-24T05:26:24.211Z,7.30
2017-11-24T05:27:24.215Z,7.50
2017-11-24T05:28:24.233Z,7.80
2017-11-24T05:29:24.242Z,8.20
2017-11-24T05:30:24.249Z,8.40
2017-11-24T05:31:24.268Z,8.30
2017-11-24T05:32:24.270Z,9.30
2017-11-24T05:34:24.290Z,8.20
2017-11-24T05:35:24.306Z,9.40
2017-11-24T05:36:24.336Z,9.30
2017-11-24T05:37:24.321Z,8.90
2017-11-24T05:38:24.328Z,9.30
2017-11-24T05:39:24.340Z,10.30
2017-11-24T05:40:24.356Z,9.90
2017-11-24T05:41:24.357Z,12.60
2017-11-24T05:42:24.361Z,12.60
2017-11-24T05:43:24.377Z,12.40
2017-11-24T05:44:24.387Z,15.70
2017-11-24T05:45:24.398Z,14.90
2017-11-24T05:46:24.408Z,15.00
2017-11-24T05:47:24.417Z,13.80
2017-11-24T05:48:24.430Z,13.80
2017-11-24T05:49:24.436Z,14.20
2017-11-24T05:50:24.445Z,12.30
2017-11-24T05:51:24.458Z,12.50
2017-11-24T05:52:24.474Z,12.90
2017-11-24T05:53:24.475Z,13.00
2017-11-24T05:54:24.485Z,12.50
2017-11-24T05:55:24.494Z,12.60
2017-11-24T05:56:24.523Z,12.00
2017-11-24T05:57:24.517Z,11.40
2017-11-24T05:58:24.525Z,11.50
2017-11-24T05:59:24.536Z,11.00
2017-11-24T06:00:24.557Z,11.00
2017-11-24T06:01:24.558Z,12.50
2017-11-24T06:02:24.575Z,11.90
2017-11-24T06:03:24.571Z,12.40
2017-11-24T06:04:24.592Z,11.60
2017-11-24T06:05:24.597Z,11.90
2017-11-24T06:06:24.612Z,12.10
2017-11-24T06:07:24.620Z,13.10
2017-11-24T06:08:24.630Z,13.00
2017-11-24T06:09:24.643Z,11.60
2017-11-24T06:10:24.649Z,10.10
2017-11-24T06:11:24.657Z,8.70
2017-11-24T06:12:24.668Z,10.00
2017-11-24T06:13:24.679Z,10.40
2017-11-24T06:14:24.685Z,10.80
2017-11-24T06:15:24.700Z,9.80
2017-11-24T06:16:24.715Z,10.10
2017-11-24T06:17:24.715Z,10.80
2017-11-24T06:18:24.723Z,10.00
2017-11-24T06:19:24.738Z,9.40
2017-11-24T06:20:24.756Z,8.80
2017-11-24T06:21:24.754Z,8.00
2017-11-24T06:22:24.765Z,7.20
2017-11-24T06:23:24.790Z,7.60
2017-11-24T06:24:24.796Z,8.20
2017-11-24T06:25:24.799Z,8.40
2017-11-24T06:26:24.807Z,9.30
2017-11-24T06:27:24.819Z,9.00
2017-11-24T06:28:24.827Z,10.50
2017-11-24T06:29:24.846Z,9.60
2017-11-24T06:30:24.852Z,9.80
2017-11-24T06:31:24.859Z,9.60
2017-11-24T06:32:24.867Z,9.20
2017-11-24T06:33:24.872Z,8.80
2017-11-24T06:34:24.890Z,8.10
2017-11-24T06:35:24.899Z,7.80
2017-11-24T06:36:24.905Z,8.50
2017-11-24T06:37:24.948Z,8.50
2017-11-24T06:38:24.928Z,9.70
2017-11-24T06:39:24.933Z,8.20
2017-11-24T06:40:24.942Z,7.60
2017-11-24T06:41:24.956Z,7.80
2017-11-24T06:42:24.968Z,7.40
2017-11-24T06:43:24.971Z,6.20
2017-11-24T06:44:24.988Z,6.50
2017-11-24T06:45:25.008Z,9.10
2017-11-24T06:46:25.003Z,7.10
2017-11-24T06:47:25.017Z,6.40
2017-11-24T06:48:25.031Z,7.80
2017-11-24T06:49:25.035Z,7.80
2017-11-24T06:50:25.047Z,7.70
2017-11-24T06:51:25.052Z,8.50
2017-11-24T06:52:25.058Z,9.40
2017-11-24T06:53:25.069Z,9.20
2017-11-24T06:54:25.081Z,8.40
2017-11-24T06:55:25.104Z,7.50
2017-11-24T06:56:25.103Z,8.60
2017-11-24T06:57:25.108Z,8.50
2017-11-24T06:58:25.113Z,9.40
2017-11-24T06:59:25.130Z,8.80
2017-11-24T07:00:25.140Z,9.80
2017-11-24T07:01:25.154Z,9.60
2017-11-24T07:02:25.162Z,9.10
2017-11-24T07:03:25.164Z,7.50
2017-11-24T07:04:25.177Z,8.30
2017-11-24T07:05:25.180Z,7.40
2017-11-24T07:06:25.195Z,7.50
2017-11-24T07:07:25.202Z,7.70
2017-11-24T07:08:25.219Z,7.80
2017-11-24T07:09:25.229Z,7.40
2017-11-24T07:10:25.237Z,7.60
2017-11-24T07:11:25.245Z,8.40
2017-11-24T07:12:25.305Z,7.40
2017-11-24T07:13:25.261Z,7.70
2017-11-24T07:14:25.273Z,7.70
2017-11-24T07:15:25.276Z,7.40
2017-11-24T07:16:25.293Z,7.00
2017-11-24T07:17:25.302Z,7.30
2017-11-24T07:18:25.309Z,7.00
2017-11-24T07:19:25.321Z,7.20
2017-11-24T07:20:25.329Z,7.00
2017-11-24T07:21:25.340Z,7.20
2017-11-24T07:22:25.426Z,7.10
2017-11-24T07:23:25.353Z,10.50
2017-11-24T07:24:25.381Z,8.40
2017-11-24T07:25:25.376Z,6.50
2017-11-24T07:26:25.389Z,8.50
2017-11-24T07:27:25.394Z,6.70
2017-11-24T07:28:25.408Z,6.70
2017-11-24T07:29:25.429Z,5.70
2017-11-24T07:30:25.421Z,6.10
2017-11-24T07:31:25.436Z,7.40
2017-11-24T07:32:25.448Z,6.20
2017-11-24T07:33:25.456Z,6.30
2017-11-24T07:34:25.466Z,5.80
2017-11-24T07:35:25.489Z,5.90
2017-11-24T07:36:25.490Z,5.70
2017-11-24T07:37:25.486Z,6.60
2017-11-24T07:38:25.495Z,6.40
2017-11-24T07:39:25.508Z,6.10
2017-11-24T07:40:25.512Z,6.50
2017-11-24T07:41:25.529Z,6.10
2017-11-24T07:42:25.538Z,5.70
2017-11-24T07:43:25.544Z,5.40
2017-11-24T07:44:25.551Z,5.50
2017-11-24T07:45:25.570Z,6.00
2017-11-24T07:46:25.570Z,6.70
2017-11-24T07:47:25.586Z,7.80
2017-11-24T07:48:25.591Z,6.60
2017-11-24T07:49:25.609Z,6.50
2017-11-24T07:50:25.615Z,6.90
2017-11-24T07:51:25.639Z,6.80
2017-11-24T07:52:25.635Z,6.00
2017-11-24T07:53:25.643Z,6.40
2017-11-24T07:54:25.652Z,7.30
2017-11-24T07:55:25.658Z,5.70
2017-11-24T07:56:25.675Z,5.10
2017-11-24T07:57:25.682Z,6.10
2017-11-24T07:58:25.700Z,6.30
2017-11-24T07:59:25.698Z,6.80
2017-11-24T08:00:25.731Z,7.10
2017-11-24T08:01:25.716Z,6.40
2017-11-24T08:02:25.727Z,7.50
2017-11-24T08:03:25.738Z,7.80
2017-11-24T08:04:25.750Z,7.80
2017-11-24T08:05:25.759Z,6.90
2017-11-24T08:06:25.777Z,6.90
2017-11-24T08:07:25.779Z,6.60
2017-11-24T08:08:25.787Z,8.70
2017-11-24T08:09:25.797Z,7.70
2017-11-24T08:10:25.807Z,7.30
2017-11-24T08:11:25.813Z,7.90
2017-11-24T08:12:25.825Z,7.90
2017-11-24T08:13:25.833Z,7.70
2017-11-24T08:14:25.840Z,7.20
2017-11-24T08:15:25.849Z,8.10
2017-11-24T08:16:25.859Z,8.30
2017-11-24T08:17:25.876Z,8.70
2017-11-24T08:18:25.896Z,8.80
2017-11-24T08:19:25.891Z,7.90
2017-11-24T08:20:26.008Z,7.70
2017-11-24T08:21:25.922Z,8.80
2017-11-24T08:22:25.920Z,8.50
2017-11-24T08:23:25.930Z,8.20
2017-11-24T08:24:25.952Z,13.30
2017-11-24T08:25:25.950Z,17.00
2017-11-24T08:26:25.981Z,12.60
2017-11-24T08:27:25.970Z,18.10
2017-11-24T08:28:25.982Z,24.20
2017-11-24T08:29:25.996Z,26.50
2017-11-24T08:30:26.006Z,18.20
2017-11-24T08:31:26.006Z,23.80
2017-11-24T08:32:26.021Z,14.90
2017-11-24T08:33:26.037Z,11.30
2017-11-24T08:34:26.039Z,8.00
2017-11-24T08:35:26.046Z,6.80
2017-11-24T08:36:26.051Z,6.30
2017-11-24T08:37:26.067Z,5.90
2017-11-24T08:38:26.086Z,6.80
2017-11-24T08:39:26.085Z,6.60
2017-11-24T08:40:26.097Z,6.80
2017-11-24T08:41:26.122Z,6.80
2017-11-24T08:42:26.113Z,5.30
2017-11-24T08:43:26.228Z,5.70
2017-11-24T08:44:26.141Z,5.30
2017-11-24T08:45:26.149Z,5.90
2017-11-24T08:46:26.152Z,6.70
2017-11-24T08:47:26.165Z,5.80
2017-11-24T08:48:26.171Z,5.90
2017-11-24T08:49:26.187Z,6.10
2017-11-24T08:50:26.242Z,7.30
2017-11-24T08:51:26.201Z,7.50
2017-11-24T08:52:26.215Z,8.90
2017-11-24T08:53:26.224Z,8.20
2017-11-24T08:54:26.235Z,7.90
2017-11-24T08:55:26.257Z,6.10
2017-11-24T08:56:26.257Z,5.00
2017-11-24T08:57:26.266Z,4.00
2017-11-24T08:58:26.282Z,4.90
2017-11-24T08:59:26.286Z,5.70
2017-11-24T09:00:26.288Z,6.90
2017-11-24T09:01:26.303Z,4.50
2017-11-24T09:02:26.322Z,4.50
2017-11-24T09:03:26.322Z,3.90
2017-11-24T09:04:26.331Z,4.50
2017-11-24T09:05:26.343Z,4.90
2017-11-24T09:06:26.379Z,4.70
2017-11-24T09:07:26.367Z,4.60
2017-11-24T09:08:26.375Z,4.50
2017-11-24T09:09:26.390Z,4.90
2017-11-24T09:10:26.394Z,5.00
2017-11-24T09:11:26.411Z,5.40
2017-11-24T09:12:26.418Z,5.40
2017-11-24T09:13:26.423Z,4.60
2017-11-24T09:14:26.438Z,5.70
2017-11-24T09:15:26.453Z,5.70
2017-11-24T09:16:26.458Z,6.40
2017-11-24T09:17:26.478Z,6.90
2017-11-24T09:18:26.473Z,7.80
2017-11-24T09:19:26.493Z,5.30
2017-11-24T09:20:26.502Z,6.30
2017-11-24T09:21:26.509Z,5.80
2017-11-24T09:22:26.526Z,5.80
2017-11-24T09:23:26.531Z,5.80
2017-11-24T09:24:26.538Z,6.60
2017-11-24T09:25:26.563Z,5.60
2017-11-24T09:26:26.560Z,5.90
2017-11-24T09:27:26.578Z,6.30
2017-11-24T09:28:26.577Z,5.10
2017-11-24T09:29:26.593Z,4.90
2017-11-24T09:30:26.614Z,5.20
2017-11-24T09:31:26.620Z,5.40
2017-11-24T09:32:26.618Z,4.60
2017-11-24T09:33:26.632Z,4.90
2017-11-24T09:34:26.642Z,5.00
2017-11-24T09:35:26.650Z,4.60
2017-11-24T09:36:26.663Z,4.50
2017-11-24T09:37:26.667Z,4.20
2017-11-24T09:38:26.688Z,4.10
2017-11-24T09:39:26.696Z,4.20
2017-11-24T09:40:26.717Z,5.30
2017-11-24T09:41:26.725Z,4.60
2017-11-24T09:42:26.730Z,4.70
2017-11-24T09:43:26.739Z,4.10
2017-11-24T09:44:26.750Z,4.70
2017-11-24T09:45:26.760Z,5.00
2017-11-24T09:46:26.784Z,4.80
2017-11-24T09:47:26.796Z,5.10
2017-11-24T09:48:26.787Z,4.40
2017-11-24T09:49:26.797Z,4.40
2017-11-24T09:50:26.806Z,4.30
2017-11-24T09:51:26.819Z,3.60
2017-11-24T09:52:26.837Z,5.20
2017-11-24T09:53:26.846Z,4.40
2017-11-24T09:54:26.847Z,3.40
2017-11-24T09:55:26.856Z,3.60
2017-11-24T09:56:26.872Z,2.90
2017-11-24T09:57:26.881Z,3.80
2017-11-24T09:58:26.890Z,3.10
2017-11-24T09:59:26.902Z,3.00
2017-11-24T10:00:26.908Z,3.30
2017-11-24T10:01:26.918Z,3.20
2017-11-24T10:02:26.927Z,3.50
2017-11-24T10:03:26.936Z,3.20
2017-11-24T10:04:26.951Z,3.00
2017-11-24T10:05:26.964Z,3.60
2017-11-24T10:06:26.980Z,3.30
2017-11-24T10:07:26.984Z,3.80
2017-11-24T10:08:26.993Z,4.30
2017-11-24T10:09:27.004Z,3.20
2017-11-24T10:10:27.014Z,3.70
2017-11-24T10:11:27.023Z,4.10
2017-11-24T10:12:27.029Z,4.00
2017-11-24T10:13:27.042Z,3.10
2017-11-24T10:14:27.047Z,3.40
2017-11-24T10:15:27.062Z,3.40
2017-11-24T10:16:27.064Z,3.30
2017-11-24T10:17:27.080Z,3.70
2017-11-24T10:18:27.089Z,2.90
2017-11-24T10:19:27.099Z,3.10
2017-11-24T10:20:27.112Z,2.60
2017-11-24T10:21:27.118Z,2.70
2017-11-24T10:22:27.138Z,3.00
2017-11-24T10:23:27.138Z,2.60
2017-11-24T10:24:27.161Z,3.00
2017-11-24T10:25:27.158Z,2.80
2017-11-24T10:26:27.172Z,3.00
2017-11-24T10:27:27.184Z,2.80
2017-11-24T10:28:27.185Z,3.00
2017-11-24T10:29:27.212Z,2.90
2017-11-24T10:30:27.211Z,2.90
2017-11-24T10:31:27.240Z,2.00
2017-11-24T10:32:27.233Z,1.90
2017-11-24T10:33:27.237Z,2.40
2017-11-24T10:34:27.250Z,2.50
2017-11-24T10:35:27.263Z,2.70
2017-11-24T10:36:27.273Z,2.60
2017-11-24T10:37:27.283Z,2.50
2017-11-24T10:38:27.295Z,2.80
2017-11-24T10:39:27.308Z,3.10
2017-11-24T10:40:27.331Z,3.60
2017-11-24T10:41:27.327Z,2.50
2017-11-24T10:42:27.328Z,3.20
2017-11-24T10:43:27.348Z,3.50
2017-11-24T10:44:27.378Z,3.60
2017-11-24T10:45:27.359Z,3.70
2017-11-24T10:46:27.373Z,3.40
2017-11-24T10:47:27.379Z,3.80
2017-11-24T10:48:27.404Z,4.30
2017-11-24T10:49:27.409Z,4.40
2017-11-24T10:50:27.413Z,4.40
2017-11-24T10:51:27.420Z,4.20
2017-11-24T10:52:27.437Z,4.10
2017-11-24T10:53:27.441Z,3.90
2017-11-24T10:54:27.500Z,4.10
2017-11-24T10:55:27.472Z,4.10
2017-11-24T10:56:27.476Z,3.90
2017-11-24T10:57:27.487Z,4.80
2017-11-24T10:58:27.494Z,4.50
2017-11-24T10:59:27.506Z,4.80
2017-11-24T11:00:27.515Z,4.40
2017-11-24T11:01:27.530Z,4.00
2017-11-24T11:02:27.540Z,3.50
2017-11-24T11:03:27.549Z,3.80
2017-11-24T11:04:28.392Z,3.80
2017-11-24T11:05:27.566Z,7.00
2017-11-24T11:06:27.575Z,4.10
2017-11-24T11:07:27.592Z,3.70
2017-11-24T11:08:27.597Z,3.50
2017-11-24T11:09:27.617Z,3.30
2017-11-24T11:10:27.631Z,3.80
2017-11-24T11:11:27.631Z,3.10
2017-11-24T11:12:27.642Z,4.30
2017-11-24T11:13:27.656Z,4.30
2017-11-24T11:14:27.666Z,3.80
2017-11-24T11:15:27.670Z,3.30
2017-11-24T11:16:27.681Z,4.80
2017-11-24T11:17:27.696Z,3.80
2017-11-24T11:18:27.703Z,2.80
2017-11-24T11:19:27.718Z,2.90
2017-11-24T11:20:27.723Z,4.00
2017-11-24T11:21:27.742Z,3.00
2017-11-24T11:22:27.744Z,3.40
2017-11-24T11:23:27.753Z,3.40
2017-11-24T11:24:27.774Z,3.00
2017-11-24T11:25:27.774Z,3.20
2017-11-24T11:26:27.786Z,3.40
2017-11-24T11:27:27.807Z,3.20
2017-11-24T11:28:27.816Z,3.10
2017-11-24T11:29:27.822Z,3.00
2017-11-24T11:30:27.837Z,2.40
2017-11-24T11:31:27.845Z,2.70
2017-11-24T11:32:27.859Z,3.20
2017-11-24T11:33:27.883Z,3.10
2017-11-24T11:34:27.887Z,3.20
2017-11-24T11:35:27.886Z,3.50
2017-11-24T11:36:27.904Z,3.70
2017-11-24T11:37:27.909Z,3.30
2017-11-24T11:38:27.921Z,3.50
2017-11-24T11:39:27.932Z,3.70
2017-11-24T11:40:27.937Z,3.70
2017-11-24T11:41:27.959Z,3.60
2017-11-24T11:42:27.975Z,3.30
2017-11-24T11:43:27.985Z,3.60
2017-11-24T11:44:27.983Z,3.80
2017-11-24T11:45:27.995Z,4.80
2017-11-24T11:46:28.005Z,4.80
2017-11-24T11:47:28.021Z,5.20
2017-11-24T11:48:28.034Z,5.00
2017-11-24T11:49:28.031Z,4.20
2017-11-24T11:50:28.043Z,6.50
2017-11-24T11:51:28.048Z,5.50
2017-11-24T11:52:28.115Z,4.90
2017-11-24T11:53:28.077Z,4.70
2017-11-24T11:54:28.085Z,4.70
2017-11-24T11:55:28.098Z,5.00
2017-11-24T11:56:28.105Z,5.50
2017-11-24T11:57:28.113Z,4.80
2017-11-24T11:58:28.126Z,4.50
2017-11-24T11:59:28.136Z,4.80
2017-11-24T12:00:28.145Z,4.90
2017-11-24T12:01:28.159Z,4.70
2017-11-24T12:02:28.259Z,5.60
2017-11-24T12:03:28.176Z,4.70
2017-11-24T12:04:28.182Z,4.70
2017-11-24T12:05:28.193Z,5.00
2017-11-24T12:06:28.204Z,4.70
2017-11-24T12:07:28.217Z,5.00
2017-11-24T12:08:28.223Z,4.90
2017-11-24T12:09:28.243Z,5.50
2017-11-24T12:10:28.241Z,4.90
2017-11-24T12:11:28.258Z,5.20
2017-11-24T12:12:28.259Z,4.70
2017-11-24T12:13:28.271Z,4.70
2017-11-24T12:14:28.294Z,4.80
2017-11-24T12:15:28.305Z,5.00
2017-11-24T12:16:28.309Z,5.00
2017-11-24T12:17:28.322Z,6.00
2017-11-24T12:18:28.324Z,5.60
2017-11-24T12:19:28.350Z,5.60
2017-11-24T12:20:28.362Z,5.50
2017-11-24T12:21:28.364Z,4.70
2017-11-24T12:22:28.367Z,5.10
2017-11-24T12:23:28.386Z,5.10
2017-11-24T12:24:28.389Z,5.10
2017-11-24T12:25:28.397Z,5.20
2017-11-24T12:26:28.407Z,5.70
2017-11-24T12:27:28.423Z,6.30
2017-11-24T12:28:28.430Z,5.20
2017-11-24T12:29:28.438Z,5.80
2017-11-24T12:30:28.451Z,5.90
2017-11-24T12:31:28.459Z,5.90
2017-11-24T12:32:28.469Z,6.10
2017-11-24T12:33:28.481Z,6.70
2017-11-24T12:34:28.491Z,6.70
2017-11-24T12:35:28.500Z,6.50
2017-11-24T12:36:28.510Z,6.70
2017-11-24T12:37:28.530Z,6.60
2017-11-24T12:38:28.526Z,7.40
2017-11-24T12:39:28.540Z,8.30
2017-11-24T12:40:28.550Z,8.00
2017-11-24T12:41:28.554Z,7.70
2017-11-24T12:42:28.565Z,9.40
2017-11-24T12:43:28.587Z,8.50
2017-11-24T12:44:28.584Z,9.70
2017-11-24T12:45:28.595Z,8.60
2017-11-24T12:46:28.614Z,8.60
2017-11-24T12:47:28.612Z,9.10
2017-11-24T12:48:28.623Z,8.80
2017-11-24T12:49:28.637Z,8.70
2017-11-24T12:50:28.701Z,10.10
2017-11-24T12:51:28.656Z,9.60
2017-11-24T12:52:28.669Z,9.40
2017-11-24T12:53:28.678Z,8.30
2017-11-24T12:54:28.687Z,8.00
2017-11-24T12:55:28.700Z,8.50
2017-11-24T12:56:28.701Z,7.70
2017-11-24T12:57:28.711Z,9.10
2017-11-24T12:58:28.721Z,9.10
2017-11-24T12:59:28.743Z,7.70
2017-11-24T13:00:29.413Z,8.60
2017-11-24T13:01:28.752Z,8.60
2017-11-24T13:02:28.758Z,6.60
2017-11-24T13:03:28.773Z,6.90
2017-11-24T13:04:28.797Z,6.60
2017-11-24T13:05:28.791Z,5.60
2017-11-24T13:06:28.794Z,6.10
2017-11-24T13:07:28.815Z,6.20
2017-11-24T13:08:28.820Z,6.60
2017-11-24T13:09:28.851Z,5.40
2017-11-24T13:10:28.839Z,5.50
2017-11-24T13:11:28.845Z,5.00
2017-11-24T13:12:28.864Z,6.10
2017-11-24T13:13:28.866Z,6.10
2017-11-24T13:14:28.874Z,5.10
2017-11-24T13:15:28.915Z,5.50
2017-11-24T13:16:28.894Z,5.30
2017-11-24T13:17:28.915Z,5.90